sensor_id;sensor_type;location;lat;lon;timestamp;pressure;altitude;pressure_sealevel;temperature;humidity
1371;BME280;14306;49.942;11.570;2023-11-21T00:00:40;96737.97;;;8.68;100.00
1371;BME280;14306;49.942;11.570;2023-11-21T00:03:08;96739.69;;;8.64;100.00
1371;BME280;14306;49.942;11.570;2023-11-21T00:05:38;96741.41;;;8.60;100.00
1371;BME280;14306;49.942;11.570;2023-11-21T00:08:08;96740.25;;;8.75;100.00
1371;BME280;14306;49.942;11.570;2023-11-21T00:10:37;96741.16;;;8.70;100.00
1371;BME280;14306;49.942;11.570;2023-11-21T00:13:07;96750.91;;;8.58;100.00
1371;BME280;14306;49.942;11.570;2023-11-21T00:15:35;96740.94;;;8.58;100.00
1371;BME280;14306;49.942;11.570;2023-11-21T00:18:03;96740.94;;;8.58;100.00
1371;BME280;14306;49.942;11.570;2023-11-21T00:20:32;96700.47;;;8.36;100.00
1371;BME280;14306;49.942;11.570;2023-11-21T00:23:00;96747.31;;;8.62;100.00
1371;BME280;14306;49.942;11.570;2023-11-21T00:25:29;96754.44;;;8.58;100.00
1371;BME280;14306;49.942;11.570;2023-11-21T00:27:58;96757.97;;;8.67;100.00
1371;BME280;14306;49.942;11.570;2023-11-21T00:30:30;96762.53;;;8.58;100.00
1371;BME280;14306;49.942;11.570;2023-11-21T00:32:58;96755.94;;;8.51;100.00
1371;BME280;14306;49.942;11.570;2023-11-21T00:35:26;96757.72;;;8.55;100.00
1371;BME280;14306;49.942;11.570;2023-11-21T00:37:55;96761.41;;;8.59;100.00
1371;BME280;14306;49.942;11.570;2023-11-21T00:40:24;96768.03;;;8.75;100.00
1371;BME280;14306;49.942;11.570;2023-11-21T00:42:52;96764.53;;;8.75;100.00
1371;BME280;14306;49.942;11.570;2023-11-21T00:45:20;96766.56;;;8.69;100.00
1371;BME280;14306;49.942;11.570;2023-11-21T00:47:50;96751.06;;;8.53;100.00
1371;BME280;14306;49.942;11.570;2023-11-21T00:50:18;96754.66;;;8.70;100.00
1371;BME280;14306;49.942;11.570;2023-11-21T00:52:46;96753.25;;;8.51;100.00
1371;BME280;14306;49.942;11.570;2023-11-21T00:55:14;96763.72;;;8.52;100.00
1371;BME280;14306;49.942;11.570;2023-11-21T00:57:44;96757.91;;;8.59;100.00
1371;BME280;14306;49.942;11.570;2023-11-21T01:00:14;96759.88;;;8.67;100.00
1371;BME280;14306;49.942;11.570;2023-11-21T01:02:44;96760.44;;;8.77;100.00
1371;BME280;14306;49.942;11.570;2023-11-21T01:05:14;96749.47;;;8.52;100.00
1371;BME280;14306;49.942;11.570;2023-11-21T01:07:42;96751.66;;;8.50;100.00
1371;BME280;14306;49.942;11.570;2023-11-21T01:10:10;96756.91;;;8.55;100.00
1371;BME280;14306;49.942;11.570;2023-11-21T01:12:38;96752.63;;;8.54;100.00
1371;BME280;14306;49.942;11.570;2023-11-21T01:15:07;96758.56;;;8.64;100.00
1371;BME280;14306;49.942;11.570;2023-11-21T01:17:35;96759.00;;;8.58;100.00
1371;BME280;14306;49.942;11.570;2023-11-21T01:20:05;96758.22;;;8.57;100.00
1371;BME280;14306;49.942;11.570;2023-11-21T01:22:41;96768.53;;;8.55;100.00
1371;BME280;14306;49.942;11.570;2023-11-21T01:25:10;96756.91;;;8.55;100.00
1371;BME280;14306;49.942;11.570;2023-11-21T01:27:38;96768.69;;;8.59;100.00
1371;BME280;14306;49.942;11.570;2023-11-21T01:30:07;96749.47;;;8.52;100.00
1371;BME280;14306;49.942;11.570;2023-11-21T01:32:37;96768.41;;;8.60;100.00
1371;BME280;14306;49.942;11.570;2023-11-21T01:35:09;96755.53;;;8.57;100.00
1371;BME280;14306;49.942;11.570;2023-11-21T01:37:37;96759.75;;;8.50;100.00
1371;BME280;14306;49.942;11.570;2023-11-21T01:40:08;96764.28;;;8.41;100.00
1371;BME280;14306;49.942;11.570;2023-11-21T01:42:41;96755.16;;;8.50;100.00
1371;BME280;14306;49.942;11.570;2023-11-21T01:45:10;96763.34;;;8.45;100.00
1371;BME280;14306;49.942;11.570;2023-11-21T01:47:40;96785.16;;;8.49;100.00
1371;BME280;14306;49.942;11.570;2023-11-21T01:50:14;96753.75;;;8.53;100.00
1371;BME280;14306;49.942;11.570;2023-11-21T01:52:43;96768.75;;;8.45;100.00
1371;BME280;14306;49.942;11.570;2023-11-21T01:55:15;96747.84;;;8.51;100.00
1371;BME280;14306;49.942;11.570;2023-11-21T01:57:54;96755.78;;;8.47;100.00
1371;BME280;14306;49.942;11.570;2023-11-21T02:00:23;96748.47;;;8.48;100.00
1371;BME280;14306;49.942;11.570;2023-11-21T02:02:52;96740.38;;;8.48;100.00
1371;BME280;14306;49.942;11.570;2023-11-21T02:05:20;96756.06;;;8.46;100.00
1371;BME280;14306;49.942;11.570;2023-11-21T02:07:49;96746.19;;;8.41;100.00
1371;BME280;14306;49.942;11.570;2023-11-21T02:10:20;96753.13;;;8.56;100.00
1371;BME280;14306;49.942;11.570;2023-11-21T02:12:51;96753.91;;;8.56;100.00
1371;BME280;14306;49.942;11.570;2023-11-21T02:15:19;96758.94;;;8.49;100.00
1371;BME280;14306;49.942;11.570;2023-11-21T02:17:48;96756.38;;;8.66;100.00
1371;BME280;14306;49.942;11.570;2023-11-21T02:20:20;96758.63;;;8.51;100.00
1371;BME280;14306;49.942;11.570;2023-11-21T02:22:53;96760.72;;;8.54;100.00
1371;BME280;14306;49.942;11.570;2023-11-21T02:25:26;96745.44;;;8.49;100.00
1371;BME280;14306;49.942;11.570;2023-11-21T02:27:55;96756.50;;;8.61;100.00
1371;BME280;14306;49.942;11.570;2023-11-21T02:30:24;96755.19;;;8.59;100.00
1371;BME280;14306;49.942;11.570;2023-11-21T02:32:55;96752.03;;;8.57;100.00
1371;BME280;14306;49.942;11.570;2023-11-21T02:35:24;96755.16;;;8.50;100.00
1371;BME280;14306;49.942;11.570;2023-11-21T02:37:54;96745.41;;;8.41;100.00
1371;BME280;14306;49.942;11.570;2023-11-21T02:40:23;96743.72;;;8.53;100.00
1371;BME280;14306;49.942;11.570;2023-11-21T02:42:53;96742.50;;;8.37;100.00
1371;BME280;14306;49.942;11.570;2023-11-21T02:45:24;96734.78;;;8.44;100.00
1371;BME280;14306;49.942;11.570;2023-11-21T02:47:53;96741.22;;;8.57;100.00
1371;BME280;14306;49.942;11.570;2023-11-21T02:50:25;96738.03;;;8.55;100.00
1371;BME280;14306;49.942;11.570;2023-11-21T02:52:55;96742.66;;;8.54;100.00
1371;BME280;14306;49.942;11.570;2023-11-21T02:55:27;96740.13;;;8.58;100.00
1371;BME280;14306;49.942;11.570;2023-11-21T02:57:55;96731.56;;;8.56;100.00
1371;BME280;14306;49.942;11.570;2023-11-21T03:00:25;96735.91;;;8.43;100.00
1371;BME280;14306;49.942;11.570;2023-11-21T03:02:53;96740.00;;;8.41;100.00
1371;BME280;14306;49.942;11.570;2023-11-21T03:05:22;96748.22;;;8.58;100.00
1371;BME280;14306;49.942;11.570;2023-11-21T03:07:50;96748.81;;;8.55;100.00
1371;BME280;14306;49.942;11.570;2023-11-21T03:10:20;96751.41;;;8.60;100.00
1371;BME280;14306;49.942;11.570;2023-11-21T03:12:48;96748.75;;;8.68;100.00
1371;BME280;14306;49.942;11.570;2023-11-21T03:15:16;96755.19;;;8.81;100.00
1371;BME280;14306;49.942;11.570;2023-11-21T03:17:44;96751.28;;;8.65;100.00
1371;BME280;14306;49.942;11.570;2023-11-21T03:20:13;96748.91;;;8.63;100.00
1371;BME280;14306;49.942;11.570;2023-11-21T03:22:42;96748.88;;;8.85;100.00
1371;BME280;14306;49.942;11.570;2023-11-21T03:25:11;96755.34;;;8.76;100.00
1371;BME280;14306;49.942;11.570;2023-11-21T03:27:41;96762.06;;;8.87;100.00
1371;BME280;14306;49.942;11.570;2023-11-21T03:30:11;96758.63;;;8.95;100.00
1371;BME280;14306;49.942;11.570;2023-11-21T03:32:39;96768.75;;;8.67;100.00
1371;BME280;14306;49.942;11.570;2023-11-21T03:35:08;96760.88;;;8.71;100.00
1371;BME280;14306;49.942;11.570;2023-11-21T03:37:36;96763.22;;;8.72;100.00
1371;BME280;14306;49.942;11.570;2023-11-21T03:40:06;96766.38;;;8.66;100.00
1371;BME280;14306;49.942;11.570;2023-11-21T03:42:35;96771.75;;;8.88;100.00
1371;BME280;14306;49.942;11.570;2023-11-21T03:45:06;96758.72;;;8.59;100.00
1371;BME280;14306;49.942;11.570;2023-11-21T03:47:35;96764.94;;;8.68;100.00
1371;BME280;14306;49.942;11.570;2023-11-21T03:50:04;96766.13;;;8.76;100.00
1371;BME280;14306;49.942;11.570;2023-11-21T03:52:32;96758.34;;;8.74;100.00
1371;BME280;14306;49.942;11.570;2023-11-21T03:55:00;96766.56;;;8.69;100.00
1371;BME280;14306;49.942;11.570;2023-11-21T03:57:29;96759.22;;;8.61;100.00
1371;BME280;14306;49.942;11.570;2023-11-21T03:59:57;96747.97;;;8.46;100.00
1371;BME280;14306;49.942;11.570;2023-11-21T04:02:27;96752.09;;;8.43;100.00
1371;BME280;14306;49.942;11.570;2023-11-21T04:04:54;96751.19;;;8.48;100.00
1371;BME280;14306;49.942;11.570;2023-11-21T04:07:23;96747.44;;;8.57;100.00
1371;BME280;14306;49.942;11.570;2023-11-21T04:09:51;96748.22;;;8.58;100.00
1371;BME280;14306;49.942;11.570;2023-11-21T04:12:20;96761.03;;;8.52;100.00
1371;BME280;14306;49.942;11.570;2023-11-21T04:14:47;96754.84;;;8.74;100.00
1371;BME280;14306;49.942;11.570;2023-11-21T04:17:18;96759.31;;;8.56;100.00
1371;BME280;14306;49.942;11.570;2023-11-21T04:19:47;96753.47;;;8.63;100.00
1371;BME280;14306;49.942;11.570;2023-11-21T04:22:15;96755.63;;;8.74;100.00
1371;BME280;14306;49.942;11.570;2023-11-21T04:24:43;96768.22;;;8.79;100.00
1371;BME280;14306;49.942;11.570;2023-11-21T04:27:11;96764.53;;;8.75;100.00
1371;BME280;14306;49.942;11.570;2023-11-21T04:29:39;96769.44;;;8.73;100.00
1371;BME280;14306;49.942;11.570;2023-11-21T04:32:08;96770.25;;;8.73;100.00
1371;BME280;14306;49.942;11.570;2023-11-21T04:34:35;96777.31;;;8.83;100.00
1371;BME280;14306;49.942;11.570;2023-11-21T04:37:05;96772.44;;;8.93;100.00
1371;BME280;14306;49.942;11.570;2023-11-21T04:39:33;96780.69;;;8.97;100.00
1371;BME280;14306;49.942;11.570;2023-11-21T04:42:01;96780.53;;;8.93;100.00
1371;BME280;14306;49.942;11.570;2023-11-21T04:44:29;96779.56;;;8.89;100.00
1371;BME280;14306;49.942;11.570;2023-11-21T04:46:57;96778.94;;;8.92;100.00
1371;BME280;14306;49.942;11.570;2023-11-21T04:49:26;96780.84;;;8.92;100.00
1371;BME280;14306;49.942;11.570;2023-11-21T04:51:53;96776.72;;;8.94;100.00
1371;BME280;14306;49.942;11.570;2023-11-21T04:54:23;96775.44;;;8.92;100.00
1371;BME280;14306;49.942;11.570;2023-11-21T04:56:54;96790.41;;;8.98;100.00
1371;BME280;14306;49.942;11.570;2023-11-21T04:59:22;96788.63;;;8.93;100.00
1371;BME280;14306;49.942;11.570;2023-11-21T05:01:51;96792.09;;;8.85;100.00
1371;BME280;14306;49.942;11.570;2023-11-21T05:04:20;96784.97;;;8.89;100.00
1371;BME280;14306;49.942;11.570;2023-11-21T05:06:49;96786.13;;;8.75;100.00
1371;BME280;14306;49.942;11.570;2023-11-21T05:09:17;96787.72;;;8.76;100.00
1371;BME280;14306;49.942;11.570;2023-11-21T05:11:46;96791.41;;;8.80;100.00
1371;BME280;14306;49.942;11.570;2023-11-21T05:14:14;96802.69;;;8.82;100.00
1371;BME280;14306;49.942;11.570;2023-11-21T05:16:42;96800.56;;;8.92;100.00
1371;BME280;14306;49.942;11.570;2023-11-21T05:19:10;96800.84;;;9.13;100.00
1371;BME280;14306;49.942;11.570;2023-11-21T05:21:40;96804.72;;;9.29;100.00
1371;BME280;14306;49.942;11.570;2023-11-21T05:24:07;96803.72;;;9.16;100.00
1371;BME280;14306;49.942;11.570;2023-11-21T05:26:35;96809.59;;;9.18;100.00
1371;BME280;14306;49.942;11.570;2023-11-21T05:29:05;96807.44;;;9.29;100.00
1371;BME280;14306;49.942;11.570;2023-11-21T05:31:33;96815.19;;;9.22;100.00
1371;BME280;14306;49.942;11.570;2023-11-21T05:34:01;96819.31;;;9.28;100.00
1371;BME280;14306;49.942;11.570;2023-11-21T05:36:29;96815.31;;;9.17;100.00
1371;BME280;14306;49.942;11.570;2023-11-21T05:38:57;96820.78;;;9.03;100.00
1371;BME280;14306;49.942;11.570;2023-11-21T05:41:24;96822.44;;;9.13;100.00
1371;BME280;14306;49.942;11.570;2023-11-21T05:43:53;96829.75;;;9.12;100.00
1371;BME280;14306;49.942;11.570;2023-11-21T05:46:22;96831.28;;;9.05;100.00
1371;BME280;14306;49.942;11.570;2023-11-21T05:48:50;96826.59;;;8.97;100.00
1371;BME280;14306;49.942;11.570;2023-11-21T05:51:18;96827.84;;;8.91;100.00
1371;BME280;14306;49.942;11.570;2023-11-21T05:53:46;96831.97;;;8.88;100.00
1371;BME280;14306;49.942;11.570;2023-11-21T05:56:14;96832.00;;;8.97;100.00
1371;BME280;14306;49.942;11.570;2023-11-21T05:58:42;96819.69;;;8.82;100.00
1371;BME280;14306;49.942;11.570;2023-11-21T06:01:10;96815.47;;;8.90;100.00
1371;BME280;14306;49.942;11.570;2023-11-21T06:03:40;96825.53;;;8.76;100.00
1371;BME280;14306;49.942;11.570;2023-11-21T06:06:09;96817.00;;;8.82;100.00
1371;BME280;14306;49.942;11.570;2023-11-21T06:08:37;96820.44;;;8.74;100.00
1371;BME280;14306;49.942;11.570;2023-11-21T06:11:05;96822.13;;;8.70;100.00
1371;BME280;14306;49.942;11.570;2023-11-21T06:13:33;96815.19;;;8.78;100.00
1371;BME280;14306;49.942;11.570;2023-11-21T06:16:01;96823.50;;;8.81;100.00
1371;BME280;14306;49.942;11.570;2023-11-21T06:18:29;96824.47;;;8.63;100.00
1371;BME280;14306;49.942;11.570;2023-11-21T06:20:58;96815.88;;;8.83;100.00
1371;BME280;14306;49.942;11.570;2023-11-21T06:23:27;96825.84;;;8.96;100.00
1371;BME280;14306;49.942;11.570;2023-11-21T06:25:55;96829.28;;;8.88;100.00
1371;BME280;14306;49.942;11.570;2023-11-21T06:28:24;96828.59;;;8.83;100.00
1371;BME280;14306;49.942;11.570;2023-11-21T06:30:52;96825.75;;;8.88;100.00
1371;BME280;14306;49.942;11.570;2023-11-21T06:33:21;96817.97;;;9.08;100.00
1371;BME280;14306;49.942;11.570;2023-11-21T06:35:50;96827.78;;;9.04;100.00
1371;BME280;14306;49.942;11.570;2023-11-21T06:38:19;96826.22;;;9.12;100.00
1371;BME280;14306;49.942;11.570;2023-11-21T06:40:48;96820.81;;;9.12;100.00
1371;BME280;14306;49.942;11.570;2023-11-21T06:43:16;96829.16;;;9.24;100.00
1371;BME280;14306;49.942;11.570;2023-11-21T06:45:44;96837.53;;;9.14;100.00
1371;BME280;14306;49.942;11.570;2023-11-21T06:48:12;96834.97;;;9.09;100.00
1371;BME280;14306;49.942;11.570;2023-11-21T06:50:41;96842.34;;;9.17;100.00
1371;BME280;14306;49.942;11.570;2023-11-21T06:53:09;96841.75;;;9.06;100.00
1371;BME280;14306;49.942;11.570;2023-11-21T06:55:38;96843.84;;;8.87;100.00
1371;BME280;14306;49.942;11.570;2023-11-21T06:58:07;96843.84;;;9.09;100.00
1371;BME280;14306;49.942;11.570;2023-11-21T07:00:36;96850.38;;;9.08;100.00
1371;BME280;14306;49.942;11.570;2023-11-21T07:03:03;96863.13;;;9.16;100.00
1371;BME280;14306;49.942;11.570;2023-11-21T07:05:32;96870.25;;;9.12;100.00
1371;BME280;14306;49.942;11.570;2023-11-21T07:08:00;96869.22;;;9.00;100.00
1371;BME280;14306;49.942;11.570;2023-11-21T07:10:31;96868.28;;;9.04;100.00
1371;BME280;14306;49.942;11.570;2023-11-21T07:13:01;96880.03;;;9.22;100.00
1371;BME280;14306;49.942;11.570;2023-11-21T07:15:29;96883.94;;;9.16;100.00
1371;BME280;14306;49.942;11.570;2023-11-21T07:17:57;96888.13;;;9.00;100.00
1371;BME280;14306;49.942;11.570;2023-11-21T07:20:25;96890.38;;;9.06;100.00
1371;BME280;14306;49.942;11.570;2023-11-21T07:22:54;96902.22;;;8.97;100.00
1371;BME280;14306;49.942;11.570;2023-11-21T07:25:22;96902.13;;;9.02;100.00
1371;BME280;14306;49.942;11.570;2023-11-21T07:27:51;96902.28;;;9.05;100.00
1371;BME280;14306;49.942;11.570;2023-11-21T07:30:21;96903.66;;;9.16;100.00
1371;BME280;14306;49.942;11.570;2023-11-21T07:32:49;96904.25;;;8.91;100.00
1371;BME280;14306;49.942;11.570;2023-11-21T07:35:18;96908.44;;;8.97;100.00
1371;BME280;14306;49.942;11.570;2023-11-21T07:37:46;96915.69;;;9.10;100.00
1371;BME280;14306;49.942;11.570;2023-11-21T07:40:15;96911.66;;;8.86;100.00
1371;BME280;14306;49.942;11.570;2023-11-21T07:42:43;96920.09;;;9.06;100.00
1371;BME280;14306;49.942;11.570;2023-11-21T07:45:12;96918.88;;;9.12;100.00
1371;BME280;14306;49.942;11.570;2023-11-21T07:47:41;96919.69;;;9.13;100.00
1371;BME280;14306;49.942;11.570;2023-11-21T07:50:10;96927.66;;;9.18;100.00
1371;BME280;14306;49.942;11.570;2023-11-21T07:52:40;96926.47;;;9.10;100.00
1371;BME280;14306;49.942;11.570;2023-11-21T07:55:09;96923.09;;;9.05;100.00
1371;BME280;14306;49.942;11.570;2023-11-21T07:57:38;96927.50;;;9.01;100.00
1371;BME280;14306;49.942;11.570;2023-11-21T08:00:07;96930.16;;;8.92;100.00
1371;BME280;14306;49.942;11.570;2023-11-21T08:02:38;96932.50;;;9.07;100.00
1371;BME280;14306;49.942;11.570;2023-11-21T08:05:11;96926.56;;;9.19;100.00
1371;BME280;14306;49.942;11.570;2023-11-21T08:07:50;96935.94;;;8.99;100.00
1371;BME280;14306;49.942;11.570;2023-11-21T08:10:19;96949.03;;;9.06;100.00
1371;BME280;14306;49.942;11.570;2023-11-21T08:12:49;96926.81;;;8.95;100.00
1371;BME280;14306;49.942;11.570;2023-11-21T08:15:18;96941.09;;;9.09;100.00
1371;BME280;14306;49.942;11.570;2023-11-21T08:17:46;96943.94;;;9.04;100.00
1371;BME280;14306;49.942;11.570;2023-11-21T08:20:17;96945.59;;;9.14;100.00
1371;BME280;14306;49.942;11.570;2023-11-21T08:22:45;96939.06;;;9.15;100.00
1371;BME280;14306;49.942;11.570;2023-11-21T08:25:15;96944.50;;;9.37;100.00
1371;BME280;14306;49.942;11.570;2023-11-21T08:27:44;96945.72;;;8.95;100.00
1371;BME280;14306;49.942;11.570;2023-11-21T08:30:13;96942.84;;;8.92;100.00
1371;BME280;14306;49.942;11.570;2023-11-21T08:32:43;96945.88;;;9.12;100.00
1371;BME280;14306;49.942;11.570;2023-11-21T08:35:12;96948.16;;;9.19;100.00
1371;BME280;14306;49.942;11.570;2023-11-21T08:37:41;96941.69;;;9.06;100.00
1371;BME280;14306;49.942;11.570;2023-11-21T08:40:11;96938.16;;;9.19;100.00
1371;BME280;14306;49.942;11.570;2023-11-21T08:42:43;96938.03;;;9.46;100.00
1371;BME280;14306;49.942;11.570;2023-11-21T08:45:12;96945.03;;;9.47;100.00
1371;BME280;14306;49.942;11.570;2023-11-21T08:47:40;96955.25;;;9.50;100.00
1371;BME280;14306;49.942;11.570;2023-11-21T08:50:11;96957.94;;;9.50;100.00
1371;BME280;14306;49.942;11.570;2023-11-21T08:52:41;96963.16;;;9.47;100.00
1371;BME280;14306;49.942;11.570;2023-11-21T08:55:10;96965.75;;;9.52;100.00
1371;BME280;14306;49.942;11.570;2023-11-21T08:57:39;96970.34;;;9.51;100.00
1371;BME280;14306;49.942;11.570;2023-11-21T09:00:09;96980.31;;;9.64;100.00
1371;BME280;14306;49.942;11.570;2023-11-21T09:02:38;96983.31;;;9.63;100.00
1371;BME280;14306;49.942;11.570;2023-11-21T09:05:09;96991.34;;;9.76;100.00
1371;BME280;14306;49.942;11.570;2023-11-21T09:07:39;96989.25;;;9.95;100.00
1371;BME280;14306;49.942;11.570;2023-11-21T09:10:10;96997.63;;;10.07;100.00
1371;BME280;14306;49.942;11.570;2023-11-21T09:12:38;97000.09;;;10.26;100.00
1371;BME280;14306;49.942;11.570;2023-11-21T09:15:07;97001.88;;;10.30;100.00
1371;BME280;14306;49.942;11.570;2023-11-21T09:17:38;96993.56;;;10.74;100.00
1371;BME280;14306;49.942;11.570;2023-11-21T09:20:07;97005.94;;;10.58;100.00
1371;BME280;14306;49.942;11.570;2023-11-21T09:22:37;97000.91;;;10.82;100.00
1371;BME280;14306;49.942;11.570;2023-11-21T09:25:06;97006.22;;;11.04;100.00
1371;BME280;14306;49.942;11.570;2023-11-21T09:27:36;97009.38;;;10.89;100.00
1371;BME280;14306;49.942;11.570;2023-11-21T09:30:06;97041.69;;;10.77;100.00
1371;BME280;14306;49.942;11.570;2023-11-21T09:32:37;97049.66;;;10.74;100.00
1371;BME280;14306;49.942;11.570;2023-11-21T09:35:08;97053.25;;;10.61;100.00
1371;BME280;14306;49.942;11.570;2023-11-21T09:37:36;97066.34;;;10.67;100.00
1371;BME280;14306;49.942;11.570;2023-11-21T09:40:10;97068.78;;;10.77;100.00
1371;BME280;14306;49.942;11.570;2023-11-21T09:42:46;97068.63;;;10.74;100.00
1371;BME280;14306;49.942;11.570;2023-11-21T09:45:23;97070.13;;;10.97;100.00
1371;BME280;14306;49.942;11.570;2023-11-21T09:47:52;97063.63;;;11.06;100.00
1371;BME280;14306;49.942;11.570;2023-11-21T09:50:23;97069.09;;;10.76;100.00
1371;BME280;14306;49.942;11.570;2023-11-21T09:53:03;97072.81;;;10.88;100.00
1371;BME280;14306;49.942;11.570;2023-11-21T09:55:37;97077.56;;;10.83;100.00
1371;BME280;14306;49.942;11.570;2023-11-21T09:58:09;97084.03;;;11.12;100.00
1371;BME280;14306;49.942;11.570;2023-11-21T10:00:40;97079.44;;;11.21;100.00
1371;BME280;14306;49.942;11.570;2023-11-21T10:03:09;97089.50;;;11.29;100.00
1371;BME280;14306;49.942;11.570;2023-11-21T10:05:37;97102.91;;;11.34;100.00
1371;BME280;14306;49.942;11.570;2023-11-21T10:08:08;97113.44;;;11.36;100.00
1371;BME280;14306;49.942;11.570;2023-11-21T10:10:37;97108.88;;;11.70;100.00
1371;BME280;14306;49.942;11.570;2023-11-21T10:13:11;97126.91;;;11.75;100.00
1371;BME280;14306;49.942;11.570;2023-11-21T10:15:44;97132.44;;;11.44;100.00
1371;BME280;14306;49.942;11.570;2023-11-21T10:18:16;97126.72;;;11.46;100.00
1371;BME280;14306;49.942;11.570;2023-11-21T10:20:45;97138.88;;;11.65;100.00
1371;BME280;14306;49.942;11.570;2023-11-21T10:23:21;97138.81;;;11.57;100.00
1371;BME280;14306;49.942;11.570;2023-11-21T10:25:50;97135.19;;;11.61;100.00
1371;BME280;14306;49.942;11.570;2023-11-21T10:28:21;97140.97;;;11.85;100.00
1371;BME280;14306;49.942;11.570;2023-11-21T10:30:49;97146.41;;;11.85;100.00
1371;BME280;14306;49.942;11.570;2023-11-21T10:33:27;97143.53;;;12.08;100.00
1371;BME280;14306;49.942;11.570;2023-11-21T10:35:55;97156.28;;;11.81;100.00
1371;BME280;14306;49.942;11.570;2023-11-21T10:38:24;97156.38;;;11.51;100.00
1371;BME280;14306;49.942;11.570;2023-11-21T10:40:54;97145.97;;;11.36;100.00
1371;BME280;14306;49.942;11.570;2023-11-21T10:43:25;97143.72;;;11.38;100.00
1371;BME280;14306;49.942;11.570;2023-11-21T10:45:57;97138.63;;;10.89;100.00
1371;BME280;14306;49.942;11.570;2023-11-21T10:48:26;97148.50;;;10.85;100.00
1371;BME280;14306;49.942;11.570;2023-11-21T10:50:55;97121.19;;;10.42;100.00
1371;BME280;14306;49.942;11.570;2023-11-21T10:53:24;97140.19;;;10.29;100.00
1371;BME280;14306;49.942;11.570;2023-11-21T10:56:02;97153.88;;;10.24;100.00
1371;BME280;14306;49.942;11.570;2023-11-21T10:58:35;97148.38;;;10.37;100.00
1371;BME280;14306;49.942;11.570;2023-11-21T11:01:06;97146.53;;;10.24;100.00
1371;BME280;14306;49.942;11.570;2023-11-21T11:03:36;97144.69;;;10.33;100.00
1371;BME280;14306;49.942;11.570;2023-11-21T11:06:05;97143.69;;;10.51;100.00
1371;BME280;14306;49.942;11.570;2023-11-21T11:08:38;97155.19;;;10.57;100.00
1371;BME280;14306;49.942;11.570;2023-11-21T11:11:07;97151.47;;;10.75;100.00
1371;BME280;14306;49.942;11.570;2023-11-21T11:13:43;97147.28;;;10.99;100.00
1371;BME280;14306;49.942;11.570;2023-11-21T11:16:13;97151.09;;;11.54;100.00
1371;BME280;14306;49.942;11.570;2023-11-21T11:18:44;97148.13;;;11.64;100.00
1371;BME280;14306;49.942;11.570;2023-11-21T11:21:26;97160.44;;;12.56;100.00
1371;BME280;14306;49.942;11.570;2023-11-21T11:24:12;97176.88;;;12.51;100.00
1371;BME280;14306;49.942;11.570;2023-11-21T11:26:48;97198.63;;;12.00;100.00
1371;BME280;14306;49.942;11.570;2023-11-21T11:29:26;97197.84;;;11.51;100.00
1371;BME280;14306;49.942;11.570;2023-11-21T11:32:06;97194.88;;;11.22;100.00
1371;BME280;14306;49.942;11.570;2023-11-21T11:34:41;97189.59;;;11.17;100.00
1371;BME280;14306;49.942;11.570;2023-11-21T11:37:12;97187.16;;;11.07;100.00
1371;BME280;14306;49.942;11.570;2023-11-21T11:39:42;97197.59;;;11.22;100.00
1371;BME280;14306;49.942;11.570;2023-11-21T11:42:13;97187.44;;;11.36;100.00
1371;BME280;14306;49.942;11.570;2023-11-21T11:44:51;97196.94;;;11.17;100.00
1371;BME280;14306;49.942;11.570;2023-11-21T11:47:21;97199.22;;;11.32;100.00
1371;BME280;14306;49.942;11.570;2023-11-21T11:49:58;97199.69;;;11.64;100.00
1371;BME280;14306;49.942;11.570;2023-11-21T11:52:38;97198.25;;;11.67;100.00
1371;BME280;14306;49.942;11.570;2023-11-21T11:55:09;97206.94;;;12.20;100.00
1371;BME280;14306;49.942;11.570;2023-11-21T11:57:41;97215.56;;;12.14;100.00
1371;BME280;14306;49.942;11.570;2023-11-21T12:00:13;97224.69;;;12.52;100.00
1371;BME280;14306;49.942;11.570;2023-11-21T12:02:47;97227.63;;;12.93;100.00
1371;BME280;14306;49.942;11.570;2023-11-21T12:05:17;97225.78;;;12.68;100.00
1371;BME280;14306;49.942;11.570;2023-11-21T12:07:47;97232.75;;;13.11;100.00
1371;BME280;14306;49.942;11.570;2023-11-21T12:10:17;97230.53;;;13.05;100.00
1371;BME280;14306;49.942;11.570;2023-11-21T12:12:46;97230.56;;;12.62;100.00
1371;BME280;14306;49.942;11.570;2023-11-21T12:15:16;97227.19;;;11.97;100.00
1371;BME280;14306;49.942;11.570;2023-11-21T12:17:46;97232.94;;;12.13;100.00
1371;BME280;14306;49.942;11.570;2023-11-21T12:20:15;97241.13;;;12.30;100.00
1371;BME280;14306;49.942;11.570;2023-11-21T12:22:45;97227.84;;;12.20;100.00
1371;BME280;14306;49.942;11.570;2023-11-21T12:25:17;97233.91;;;12.08;100.00
1371;BME280;14306;49.942;11.570;2023-11-21T12:27:47;97242.72;;;12.14;100.00
1371;BME280;14306;49.942;11.570;2023-11-21T12:30:19;97240.66;;;12.53;100.00
1371;BME280;14306;49.942;11.570;2023-11-21T12:32:49;97239.38;;;12.42;100.00
1371;BME280;14306;49.942;11.570;2023-11-21T12:35:18;97245.91;;;12.50;100.00
1371;BME280;14306;49.942;11.570;2023-11-21T12:37:48;97251.66;;;12.48;100.00
1371;BME280;14306;49.942;11.570;2023-11-21T12:40:18;97254.38;;;12.74;100.00
1371;BME280;14306;49.942;11.570;2023-11-21T12:42:47;97253.25;;;12.32;100.00
1371;BME280;14306;49.942;11.570;2023-11-21T12:45:21;97256.28;;;12.14;100.00
1371;BME280;14306;49.942;11.570;2023-11-21T12:47:54;97251.09;;;11.47;100.00
1371;BME280;14306;49.942;11.570;2023-11-21T12:50:24;97238.25;;;11.22;100.00
1371;BME280;14306;49.942;11.570;2023-11-21T12:52:58;97253.44;;;11.01;100.00
1371;BME280;14306;49.942;11.570;2023-11-21T12:55:30;97247.13;;;10.84;100.00
1371;BME280;14306;49.942;11.570;2023-11-21T12:57:58;97238.44;;;10.73;100.00
1371;BME280;14306;49.942;11.570;2023-11-21T13:00:40;97235.31;;;10.58;100.00
1371;BME280;14306;49.942;11.570;2023-11-21T13:03:10;97233.09;;;10.38;100.00
1371;BME280;14306;49.942;11.570;2023-11-21T13:05:40;97227.13;;;10.27;100.00
1371;BME280;14306;49.942;11.570;2023-11-21T13:08:14;97231.03;;;10.21;100.00
1371;BME280;14306;49.942;11.570;2023-11-21T13:10:49;97224.78;;;9.85;100.00